createdAt,value
2022-08-26T00:00:07.452Z,23.17
2022-08-26T00:01:07.407Z,23.27
2022-08-26T00:02:07.507Z,23.18
2022-08-26T00:03:07.509Z,23.24
2022-08-26T00:04:07.444Z,23.24
2022-08-26T00:05:07.357Z,23.18
2022-08-26T00:06:07.310Z,23.17
2022-08-26T00:07:07.295Z,23.13
2022-08-26T00:08:07.276Z,23.20
2022-08-26T00:09:08.035Z,23.18
2022-08-26T00:10:07.268Z,23.06
2022-08-26T00:11:07.223Z,23.13
2022-08-26T00:12:07.203Z,23.15
2022-08-26T00:13:07.387Z,23.13
2022-08-26T00:14:07.164Z,23.17
2022-08-26T00:15:08.179Z,23.08
2022-08-26T00:16:07.165Z,23.09
2022-08-26T00:17:08.652Z,23.13
2022-08-26T00:18:16.734Z,23.15
2022-08-26T00:19:08.118Z,23.15
2022-08-26T00:20:07.086Z,23.05
2022-08-26T00:21:07.038Z,23.10
2022-08-26T00:22:07.017Z,23.06
2022-08-26T00:23:07.179Z,23.03
2022-08-26T00:24:06.984Z,23.08
2022-08-26T00:25:06.986Z,23.13
2022-08-26T00:26:06.943Z,23.03
2022-08-26T00:27:06.927Z,23.12
2022-08-26T00:28:06.905Z,23.06
2022-08-26T00:29:06.885Z,23.12
2022-08-26T00:30:06.896Z,23.00
2022-08-26T00:31:06.851Z,22.99
2022-08-26T00:32:06.901Z,23.03
2022-08-26T00:33:07.268Z,23.06
2022-08-26T00:34:06.793Z,23.02
2022-08-26T00:35:06.805Z,22.99
2022-08-26T00:36:06.764Z,23.02
2022-08-26T00:37:08.930Z,23.10
2022-08-26T00:38:06.719Z,23.03
2022-08-26T00:39:06.701Z,23.00
2022-08-26T00:40:06.753Z,23.00
2022-08-26T00:41:06.664Z,22.99
2022-08-26T00:42:06.645Z,23.00
2022-08-26T00:43:09.304Z,22.98
2022-08-26T00:44:06.608Z,22.90
2022-08-26T00:45:10.199Z,23.02
2022-08-26T00:46:07.613Z,22.93
2022-08-26T00:47:06.554Z,22.93
2022-08-26T00:48:06.535Z,22.96
2022-08-26T00:49:11.848Z,23.02
2022-08-26T00:50:07.521Z,23.00
2022-08-26T00:51:07.481Z,22.88
2022-08-26T00:52:06.460Z,22.87
2022-08-26T00:53:06.653Z,22.83
2022-08-26T00:54:06.427Z,22.85
2022-08-26T00:55:06.435Z,22.88
2022-08-26T00:56:06.390Z,22.87
2022-08-26T00:57:15.807Z,22.90
2022-08-26T00:58:07.352Z,22.87
2022-08-26T00:59:06.338Z,22.93
2022-08-26T01:00:06.339Z,22.94
2022-08-26T01:01:06.342Z,22.90
2022-08-26T01:02:06.299Z,22.93
2022-08-26T01:03:06.365Z,22.88
2022-08-26T01:04:07.246Z,22.85
2022-08-26T01:05:06.251Z,22.90
2022-08-26T01:06:06.212Z,22.78
2022-08-26T01:07:07.190Z,22.83
2022-08-26T01:08:06.172Z,22.78
2022-08-26T01:09:06.153Z,22.73
2022-08-26T01:10:06.162Z,22.66
2022-08-26T01:11:06.119Z,22.73
2022-08-26T01:12:06.099Z,22.73
2022-08-26T01:13:06.380Z,22.69
2022-08-26T01:14:06.062Z,22.55
2022-08-26T01:15:06.070Z,22.63
2022-08-26T01:16:06.049Z,22.62
2022-08-26T01:17:06.013Z,22.65
2022-08-26T01:18:05.987Z,22.66
2022-08-26T01:19:05.971Z,22.65
2022-08-26T01:20:06.072Z,22.68
2022-08-26T01:21:05.935Z,22.55
2022-08-26T01:22:05.919Z,22.66
2022-08-26T01:23:06.077Z,22.63
2022-08-26T01:24:05.879Z,22.59
2022-08-26T01:25:05.891Z,22.63
2022-08-26T01:26:05.844Z,22.57
2022-08-26T01:27:05.825Z,22.55
2022-08-26T01:28:05.813Z,22.44
2022-08-26T01:29:05.787Z,22.48
2022-08-26T01:30:05.841Z,22.36
2022-08-26T01:31:05.748Z,22.35
2022-08-26T01:32:05.733Z,22.45
2022-08-26T01:33:05.966Z,22.39
2022-08-26T01:34:05.694Z,22.36
2022-08-26T01:35:05.701Z,22.30
2022-08-26T01:36:05.658Z,22.20
2022-08-26T01:37:05.643Z,22.26
2022-08-26T01:38:05.620Z,22.26
2022-08-26T01:39:05.705Z,22.17
2022-08-26T01:40:05.690Z,22.23
2022-08-26T01:41:16.139Z,22.20
2022-08-26T01:42:06.542Z,22.29
2022-08-26T01:43:05.682Z,22.10
2022-08-26T01:44:05.510Z,22.10
2022-08-26T01:45:05.515Z,22.13
2022-08-26T01:46:05.515Z,22.13
2022-08-26T01:47:06.525Z,22.14
2022-08-26T01:48:05.435Z,22.17
2022-08-26T01:49:06.501Z,22.13
2022-08-26T01:50:05.431Z,22.13
2022-08-26T01:51:05.406Z,22.06
2022-08-26T01:52:05.360Z,22.07
2022-08-26T01:53:05.499Z,22.07
2022-08-26T01:54:05.335Z,22.07
2022-08-26T01:55:05.328Z,21.98
2022-08-26T01:56:05.282Z,21.95
2022-08-26T01:57:05.267Z,21.95
2022-08-26T01:58:05.311Z,21.93
2022-08-26T01:59:05.233Z,21.98
2022-08-26T02:00:05.240Z,21.91
2022-08-26T02:01:05.223Z,21.85
2022-08-26T02:02:05.170Z,21.93
2022-08-26T02:03:05.170Z,21.91
2022-08-26T02:04:05.139Z,21.91
2022-08-26T02:05:05.152Z,21.96
2022-08-26T02:06:05.102Z,21.85
2022-08-26T02:07:05.080Z,21.89
2022-08-26T02:08:05.061Z,21.88
2022-08-26T02:09:05.041Z,21.92
2022-08-26T02:10:05.051Z,21.79
2022-08-26T02:11:05.028Z,21.83
2022-08-26T02:12:04.990Z,21.77
2022-08-26T02:13:04.969Z,21.82
2022-08-26T02:14:04.962Z,21.67
2022-08-26T02:15:05.649Z,21.73
2022-08-26T02:16:04.957Z,21.64
2022-08-26T02:17:04.894Z,21.58
2022-08-26T02:18:04.871Z,21.64
2022-08-26T02:19:04.861Z,21.62
2022-08-26T02:20:04.865Z,21.52
2022-08-26T02:21:06.766Z,21.60
2022-08-26T02:22:04.796Z,21.57
2022-08-26T02:23:04.779Z,21.57
2022-08-26T02:24:04.772Z,21.60
2022-08-26T02:25:04.770Z,21.48
2022-08-26T02:26:04.721Z,21.54
2022-08-26T02:27:04.703Z,21.57
2022-08-26T02:28:04.692Z,21.58
2022-08-26T02:29:04.664Z,21.52
2022-08-26T02:30:04.672Z,21.42
2022-08-26T02:31:04.720Z,21.50
2022-08-26T02:32:04.605Z,21.51
2022-08-26T02:33:04.636Z,21.43
2022-08-26T02:34:04.571Z,21.40
2022-08-26T02:35:04.574Z,21.36
2022-08-26T02:36:04.543Z,21.33
2022-08-26T02:37:04.510Z,21.33
2022-08-26T02:38:10.214Z,21.39
2022-08-26T02:39:06.481Z,21.35
2022-08-26T02:40:04.536Z,21.42
2022-08-26T02:41:04.441Z,21.42
2022-08-26T02:42:04.445Z,21.45
2022-08-26T02:43:04.402Z,21.43
2022-08-26T02:44:04.378Z,21.40
2022-08-26T02:45:04.393Z,21.36
2022-08-26T02:46:04.338Z,21.39
2022-08-26T02:47:04.378Z,21.40
2022-08-26T02:48:04.305Z,21.29
2022-08-26T02:49:04.287Z,21.42
2022-08-26T02:50:04.292Z,21.45
2022-08-26T02:51:04.249Z,21.37
2022-08-26T02:52:04.227Z,21.36
2022-08-26T02:53:04.255Z,21.48
2022-08-26T02:54:04.190Z,21.42
2022-08-26T02:55:04.199Z,21.42
2022-08-26T02:56:04.155Z,21.43
2022-08-26T02:57:04.134Z,21.42
2022-08-26T02:58:04.113Z,21.37
2022-08-26T02:59:04.090Z,21.32
2022-08-26T03:00:04.101Z,21.32
2022-08-26T03:01:04.897Z,21.18
2022-08-26T03:02:04.077Z,21.03
2022-08-26T03:03:04.059Z,21.02
2022-08-26T03:04:04.004Z,20.96
2022-08-26T03:05:04.007Z,21.07
2022-08-26T03:06:03.962Z,20.99
2022-08-26T03:07:03.943Z,21.03
2022-08-26T03:08:03.925Z,21.05
2022-08-26T03:09:03.903Z,20.97
2022-08-26T03:10:08.136Z,20.95
2022-08-26T03:11:03.869Z,20.90
2022-08-26T03:12:03.848Z,20.82
2022-08-26T03:13:05.186Z,20.87
2022-08-26T03:14:03.879Z,20.88
2022-08-26T03:15:17.295Z,20.85
2022-08-26T03:16:04.804Z,20.78
2022-08-26T03:17:03.762Z,20.72
2022-08-26T03:18:03.745Z,20.72
2022-08-26T03:19:03.719Z,20.72
2022-08-26T03:20:03.739Z,20.69
2022-08-26T03:21:03.682Z,20.77
2022-08-26T03:22:03.664Z,20.72
2022-08-26T03:23:03.660Z,20.81
2022-08-26T03:24:03.628Z,20.90
2022-08-26T03:25:03.631Z,20.97
2022-08-26T03:26:03.587Z,20.93
2022-08-26T03:27:05.826Z,20.97
2022-08-26T03:28:03.552Z,21.02
2022-08-26T03:29:03.535Z,21.12
2022-08-26T03:30:03.541Z,21.07
2022-08-26T03:31:03.568Z,21.09
2022-08-26T03:32:03.474Z,21.09
2022-08-26T03:33:03.458Z,21.12
2022-08-26T03:34:03.438Z,21.12
2022-08-26T03:35:03.446Z,21.09
2022-08-26T03:36:03.397Z,20.99
2022-08-26T03:37:03.377Z,20.99
2022-08-26T03:38:03.363Z,20.99
2022-08-26T03:39:03.341Z,20.99
2022-08-26T03:40:03.417Z,20.92
2022-08-26T03:41:03.298Z,20.88
2022-08-26T03:42:03.285Z,20.85
2022-08-26T03:43:03.263Z,20.88
2022-08-26T03:44:03.415Z,20.90
2022-08-26T03:45:03.251Z,20.92
2022-08-26T03:46:03.236Z,20.87
2022-08-26T03:47:03.187Z,20.87
2022-08-26T03:48:03.167Z,20.77
2022-08-26T03:49:03.148Z,20.81
2022-08-26T03:50:03.163Z,20.80
2022-08-26T03:51:03.213Z,20.92
2022-08-26T03:52:03.121Z,20.82
2022-08-26T03:53:03.073Z,20.77
2022-08-26T03:54:03.068Z,20.85
2022-08-26T03:55:03.054Z,20.74
2022-08-26T03:56:03.014Z,20.74
2022-08-26T03:57:02.987Z,20.74
2022-08-26T03:58:02.971Z,20.69
2022-08-26T03:59:02.953Z,20.67
2022-08-26T04:00:02.934Z,20.74
2022-08-26T04:01:02.942Z,20.77
2022-08-26T04:02:02.956Z,20.67
2022-08-26T04:03:03.999Z,20.67
2022-08-26T04:04:03.274Z,20.72
2022-08-26T04:05:02.870Z,20.66
2022-08-26T04:06:02.817Z,20.65
2022-08-26T04:07:02.797Z,20.74
2022-08-26T04:08:02.775Z,20.66
2022-08-26T04:09:02.757Z,20.62
2022-08-26T04:10:02.742Z,20.69
2022-08-26T04:11:02.745Z,20.70
2022-08-26T04:12:02.700Z,20.60
2022-08-26T04:13:02.683Z,20.69
2022-08-26T04:14:02.668Z,20.65
2022-08-26T04:15:02.841Z,20.58
2022-08-26T04:16:02.721Z,20.62
2022-08-26T04:17:02.605Z,20.55
2022-08-26T04:18:02.587Z,20.59
2022-08-26T04:19:02.563Z,20.60
2022-08-26T04:20:02.554Z,20.55
2022-08-26T04:21:02.543Z,20.66
2022-08-26T04:22:04.502Z,20.67
2022-08-26T04:23:02.512Z,20.65
2022-08-26T04:24:03.651Z,20.60
2022-08-26T04:25:02.444Z,20.63
2022-08-26T04:26:02.452Z,20.65
2022-08-26T04:27:02.408Z,20.63
2022-08-26T04:28:02.388Z,20.56
2022-08-26T04:29:02.374Z,20.58
2022-08-26T04:30:02.353Z,20.56
2022-08-26T04:31:02.371Z,20.63
2022-08-26T04:32:02.308Z,20.58
2022-08-26T04:33:02.325Z,20.55
2022-08-26T04:34:02.270Z,20.70
2022-08-26T04:35:02.250Z,20.66
2022-08-26T04:36:02.256Z,20.63
2022-08-26T04:37:02.214Z,20.67
2022-08-26T04:38:02.194Z,20.66
2022-08-26T04:39:02.171Z,20.65
2022-08-26T04:40:02.254Z,20.65
2022-08-26T04:41:02.161Z,20.69
2022-08-26T04:42:02.114Z,20.67
2022-08-26T04:43:02.148Z,20.67
2022-08-26T04:44:02.077Z,20.72
2022-08-26T04:45:02.059Z,20.74
2022-08-26T04:46:02.126Z,20.84
2022-08-26T04:47:02.020Z,20.99
2022-08-26T04:48:01.996Z,21.30
2022-08-26T04:49:01.980Z,21.48
2022-08-26T04:50:02.120Z,21.67
2022-08-26T04:51:01.966Z,22.04
2022-08-26T04:52:01.931Z,22.26
2022-08-26T04:53:01.941Z,22.51
2022-08-26T04:54:01.885Z,22.72
2022-08-26T04:55:01.877Z,22.91
2022-08-26T04:56:01.883Z,23.28
2022-08-26T04:57:01.823Z,23.50
2022-08-26T04:58:01.799Z,23.74
2022-08-26T04:59:01.785Z,24.03
2022-08-26T05:00:01.767Z,24.33
2022-08-26T05:01:01.768Z,24.60
2022-08-26T05:02:01.805Z,24.74
2022-08-26T05:03:01.794Z,24.99
2022-08-26T05:04:01.770Z,24.98
2022-08-26T05:05:01.668Z,25.33
2022-08-26T05:06:01.677Z,25.51
2022-08-26T05:07:02.883Z,25.70
2022-08-26T05:08:01.615Z,25.83
2022-08-26T05:09:01.627Z,25.91
2022-08-26T05:10:01.580Z,25.85
2022-08-26T05:11:01.586Z,25.72
2022-08-26T05:12:01.543Z,25.48
2022-08-26T05:13:01.578Z,25.53
2022-08-26T05:14:02.252Z,25.51
2022-08-26T05:15:02.486Z,25.55
2022-08-26T05:16:01.601Z,25.70
2022-08-26T05:17:01.457Z,25.87
2022-08-26T05:18:01.433Z,26.00
2022-08-26T05:19:01.415Z,26.22
2022-08-26T05:20:01.393Z,26.37
2022-08-26T05:21:01.399Z,26.34
2022-08-26T05:22:01.355Z,26.41
2022-08-26T05:23:01.357Z,26.41
2022-08-26T05:24:01.315Z,26.48
2022-08-26T05:25:01.295Z,26.58
2022-08-26T05:26:01.305Z,26.74
2022-08-26T05:27:01.263Z,27.08
2022-08-26T05:28:01.248Z,27.55
2022-08-26T05:29:01.222Z,28.11
2022-08-26T05:30:01.206Z,28.48
2022-08-26T05:31:01.274Z,28.64
2022-08-26T05:32:01.174Z,28.97
2022-08-26T05:33:01.146Z,29.20
2022-08-26T05:34:03.592Z,29.38
2022-08-26T05:35:01.118Z,29.27
2022-08-26T05:36:01.128Z,28.84
2022-08-26T05:37:01.079Z,28.79
2022-08-26T05:38:01.062Z,28.64
2022-08-26T05:39:01.045Z,28.54
2022-08-26T05:40:01.059Z,28.59
2022-08-26T05:41:01.033Z,28.63
2022-08-26T05:42:00.986Z,28.81
2022-08-26T05:43:00.968Z,29.08
2022-08-26T05:44:00.955Z,29.47
2022-08-26T05:45:00.934Z,29.78
2022-08-26T05:46:00.944Z,30.05
2022-08-26T05:47:00.901Z,30.24
2022-08-26T05:48:00.882Z,30.53
2022-08-26T05:49:00.863Z,30.84
2022-08-26T05:50:00.847Z,31.07
2022-08-26T05:51:00.862Z,31.31
2022-08-26T05:52:00.813Z,31.49
2022-08-26T05:53:00.793Z,31.66
2022-08-26T05:54:00.776Z,31.84
2022-08-26T05:55:00.769Z,32.12
2022-08-26T05:56:00.769Z,32.30
2022-08-26T05:57:00.726Z,32.51
2022-08-26T05:58:02.677Z,32.45
2022-08-26T05:59:00.681Z,32.31
2022-08-26T06:00:00.679Z,32.33
2022-08-26T06:01:00.687Z,32.16
2022-08-26T06:02:00.652Z,32.09
2022-08-26T06:03:00.658Z,32.08
2022-08-26T06:04:00.596Z,31.99
2022-08-26T06:05:00.578Z,32.19
2022-08-26T06:06:00.599Z,32.38
2022-08-26T06:07:00.545Z,32.56
2022-08-26T06:08:00.526Z,32.63
2022-08-26T06:09:00.505Z,32.92
2022-08-26T06:10:21.620Z,33.11
2022-08-26T06:11:02.507Z,33.28
2022-08-26T06:12:00.457Z,33.27
2022-08-26T06:13:04.398Z,33.04
2022-08-26T06:14:03.739Z,32.92
2022-08-26T06:15:01.405Z,32.40
2022-08-26T06:16:00.440Z,32.19
2022-08-26T06:17:00.378Z,32.45
2022-08-26T06:18:00.354Z,32.58
2022-08-26T06:19:00.337Z,32.93
2022-08-26T06:20:00.322Z,33.47
2022-08-26T06:21:00.331Z,33.99
2022-08-26T06:22:00.287Z,34.36
2022-08-26T06:23:00.268Z,34.43
2022-08-26T06:24:00.253Z,34.39
2022-08-26T06:25:00.238Z,34.25
2022-08-26T06:26:00.245Z,34.27
2022-08-26T06:27:00.207Z,34.13
2022-08-26T06:28:00.189Z,34.30
2022-08-26T06:29:00.175Z,34.61
2022-08-26T06:30:00.162Z,34.92
2022-08-26T06:31:00.235Z,35.34
2022-08-26T06:32:00.122Z,35.66
2022-08-26T06:33:00.107Z,35.93
2022-08-26T06:34:00.092Z,35.64
2022-08-26T06:35:00.075Z,35.74
2022-08-26T06:36:00.096Z,35.46
2022-08-26T06:37:01.328Z,35.45
2022-08-26T06:38:00.028Z,35.76
2022-08-26T06:39:00.008Z,35.95
2022-08-26T06:40:00.021Z,36.16
2022-08-26T06:41:00.007Z,36.40
2022-08-26T06:41:59.963Z,36.54
2022-08-26T06:42:59.948Z,36.72
2022-08-26T06:43:59.938Z,36.72
2022-08-26T06:44:59.943Z,36.24
2022-08-26T06:46:00.015Z,35.73
2022-08-26T06:46:59.884Z,35.74
2022-08-26T06:47:59.876Z,35.33
2022-08-26T06:48:59.848Z,35.55
2022-08-26T06:49:59.836Z,35.89
2022-08-26T06:50:59.819Z,36.27
2022-08-26T06:51:59.872Z,36.35
2022-08-26T06:52:59.790Z,36.51
2022-08-26T06:53:59.778Z,36.70
2022-08-26T06:54:59.758Z,36.51
2022-08-26T06:55:59.748Z,36.68
2022-08-26T06:56:59.755Z,37.03
2022-08-26T06:57:59.712Z,37.33
2022-08-26T06:58:59.698Z,37.99
2022-08-26T06:59:59.682Z,38.42
2022-08-26T07:01:03.771Z,38.83
2022-08-26T07:02:01.723Z,38.99
2022-08-26T07:02:59.689Z,38.65
2022-08-26T07:03:59.624Z,38.30
2022-08-26T07:04:59.604Z,36.99
2022-08-26T07:05:59.590Z,36.93
2022-08-26T07:06:59.603Z,36.57
2022-08-26T07:07:59.561Z,36.17
2022-08-26T07:08:59.545Z,35.78
2022-08-26T07:09:59.536Z,35.74
2022-08-26T07:10:59.518Z,35.48
2022-08-26T07:11:59.531Z,35.18
2022-08-26T07:12:59.487Z,34.39
2022-08-26T07:13:59.469Z,34.06
2022-08-26T07:14:59.457Z,34.38
2022-08-26T07:16:03.033Z,34.67
2022-08-26T07:16:59.458Z,34.95
2022-08-26T07:17:59.412Z,35.07
2022-08-26T07:18:59.388Z,35.27
2022-08-26T07:20:00.381Z,35.53
2022-08-26T07:20:59.369Z,35.73
2022-08-26T07:21:59.379Z,35.88
2022-08-26T07:22:59.333Z,35.80
2022-08-26T07:24:01.620Z,35.86
2022-08-26T07:25:00.300Z,35.51
2022-08-26T07:25:59.282Z,35.86
2022-08-26T07:26:59.301Z,36.28
2022-08-26T07:27:59.257Z,35.90
2022-08-26T07:28:59.420Z,35.18
2022-08-26T07:29:59.227Z,35.04
2022-08-26T07:30:59.289Z,34.81
2022-08-26T07:31:59.226Z,34.92
2022-08-26T07:32:59.189Z,34.95
2022-08-26T07:33:59.166Z,34.77
2022-08-26T07:34:59.157Z,34.86
2022-08-26T07:35:59.132Z,34.77
2022-08-26T07:36:59.163Z,34.89
2022-08-26T07:37:59.102Z,35.30
2022-08-26T07:38:59.094Z,35.56
2022-08-26T07:39:59.128Z,35.88
2022-08-26T07:40:59.060Z,35.95
2022-08-26T07:41:59.073Z,36.23
2022-08-26T07:42:59.029Z,36.68
2022-08-26T07:43:59.009Z,36.99
2022-08-26T07:44:59.000Z,37.21
2022-08-26T07:45:58.976Z,37.30
2022-08-26T07:46:58.987Z,37.28
2022-08-26T07:47:58.941Z,37.10
2022-08-26T07:48:58.966Z,36.73
2022-08-26T07:49:58.919Z,36.05
2022-08-26T07:50:58.900Z,35.82
2022-08-26T07:51:58.908Z,35.76
2022-08-26T07:52:58.880Z,36.20
2022-08-26T07:53:58.852Z,36.58
2022-08-26T07:54:58.836Z,37.02
2022-08-26T07:55:58.821Z,37.49
2022-08-26T07:56:58.835Z,37.30
2022-08-26T07:57:58.795Z,37.07
2022-08-26T07:58:58.777Z,37.26
2022-08-26T07:59:58.761Z,37.06
2022-08-26T08:00:58.743Z,36.92
2022-08-26T08:01:58.809Z,37.02
2022-08-26T08:02:58.714Z,36.86
2022-08-26T08:03:58.699Z,37.03
2022-08-26T08:04:58.829Z,37.28
2022-08-26T08:05:58.674Z,37.77
2022-08-26T08:06:58.682Z,38.06
2022-08-26T08:08:00.811Z,38.08
2022-08-26T08:08:59.627Z,37.83
2022-08-26T08:09:58.607Z,36.77
2022-08-26T08:10:58.588Z,36.00
2022-08-26T08:11:58.602Z,35.33
2022-08-26T08:12:58.562Z,34.96
2022-08-26T08:13:58.551Z,34.78
2022-08-26T08:14:58.534Z,34.70
2022-08-26T08:15:58.515Z,34.74
2022-08-26T08:16:58.571Z,34.40
2022-08-26T08:18:00.647Z,33.77
2022-08-26T08:18:59.470Z,33.57
2022-08-26T08:19:58.452Z,33.71
2022-08-26T08:21:10.835Z,33.59
2022-08-26T08:21:59.454Z,33.95
2022-08-26T08:22:58.406Z,34.42
2022-08-26T08:23:58.404Z,35.05
2022-08-26T08:24:58.387Z,34.51
2022-08-26T08:25:58.366Z,33.90
2022-08-26T08:26:58.377Z,32.87
2022-08-26T08:27:58.327Z,32.23
2022-08-26T08:28:58.312Z,31.02
2022-08-26T08:29:58.328Z,31.03
2022-08-26T08:30:58.297Z,30.61
2022-08-26T08:31:59.900Z,30.78
2022-08-26T08:32:58.277Z,31.44
2022-08-26T08:33:58.263Z,31.90
2022-08-26T08:34:58.225Z,32.18
2022-08-26T08:35:58.210Z,32.53
2022-08-26T08:36:58.216Z,32.97
2022-08-26T08:37:58.173Z,33.76
2022-08-26T08:38:58.160Z,33.95
2022-08-26T08:39:58.186Z,34.29
2022-08-26T08:40:58.125Z,33.92
2022-08-26T08:41:58.137Z,33.98
2022-08-26T08:42:58.129Z,33.68
2022-08-26T08:43:58.077Z,32.55
2022-08-26T08:44:58.060Z,32.43
2022-08-26T08:45:58.103Z,33.07
2022-08-26T08:46:58.074Z,33.46
2022-08-26T08:47:58.037Z,33.67
2022-08-26T08:48:57.997Z,33.90
2022-08-26T08:49:57.991Z,33.46
2022-08-26T08:50:57.999Z,31.84
2022-08-26T08:51:57.974Z,31.62
2022-08-26T08:52:57.937Z,31.93
2022-08-26T08:53:57.916Z,31.70
2022-08-26T08:54:57.931Z,31.70
2022-08-26T08:55:57.887Z,31.36
2022-08-26T08:56:57.903Z,30.47
2022-08-26T08:58:01.659Z,29.97
2022-08-26T08:58:57.840Z,29.93
2022-08-26T08:59:57.818Z,30.05
2022-08-26T09:00:57.834Z,30.00
2022-08-26T09:01:57.835Z,29.94
2022-08-26T09:02:57.768Z,29.59
2022-08-26T09:03:57.751Z,29.27
2022-08-26T09:04:57.748Z,29.94
2022-08-26T09:05:57.715Z,30.43
2022-08-26T09:07:57.683Z,30.55
2022-08-26T09:08:57.694Z,30.08
2022-08-26T09:09:57.648Z,30.24
2022-08-26T09:10:57.688Z,30.88
2022-08-26T09:11:57.678Z,31.34
2022-08-26T09:12:57.599Z,30.55
2022-08-26T09:13:57.585Z,30.83
2022-08-26T09:14:57.562Z,31.37
2022-08-26T09:15:57.543Z,31.54
2022-08-26T09:16:57.618Z,31.21
2022-08-26T09:17:57.514Z,31.64
2022-08-26T09:18:57.496Z,32.18
2022-08-26T09:19:57.492Z,32.86
2022-08-26T09:20:58.460Z,33.00
2022-08-26T09:21:57.469Z,33.28
2022-08-26T09:22:57.436Z,33.28
2022-08-26T09:23:57.407Z,32.83
2022-08-26T09:24:57.414Z,32.58
2022-08-26T09:25:57.413Z,31.97
2022-08-26T09:26:57.381Z,31.62
2022-08-26T09:27:57.335Z,31.74
2022-08-26T09:28:57.318Z,31.78
2022-08-26T09:29:57.299Z,32.08
2022-08-26T09:30:57.334Z,32.38
2022-08-26T09:31:57.290Z,32.58
2022-08-26T09:32:57.246Z,32.78
2022-08-26T09:33:57.248Z,32.43
2022-08-26T09:34:57.209Z,31.66
2022-08-26T09:35:57.198Z,31.77
2022-08-26T09:36:57.217Z,31.58
2022-08-26T09:37:57.163Z,31.69
2022-08-26T09:38:57.139Z,31.69
2022-08-26T09:39:57.187Z,31.62
2022-08-26T09:40:59.246Z,31.74
2022-08-26T09:41:57.132Z,32.23
2022-08-26T09:42:57.082Z,32.89
2022-08-26T09:43:57.051Z,32.30
2022-08-26T09:44:57.048Z,32.46
2022-08-26T09:45:59.513Z,32.55
2022-08-26T09:46:58.101Z,32.45
2022-08-26T09:47:56.984Z,32.14
2022-08-26T09:48:56.967Z,32.33
2022-08-26T09:49:56.954Z,32.36
2022-08-26T09:50:56.939Z,32.59
2022-08-26T09:51:56.941Z,32.89
2022-08-26T09:52:56.909Z,32.64
2022-08-26T09:53:56.885Z,32.33
2022-08-26T09:54:56.869Z,32.15
2022-08-26T09:55:56.848Z,31.56
2022-08-26T09:56:56.865Z,31.28
2022-08-26T09:57:57.524Z,31.37
2022-08-26T09:58:56.800Z,31.65
2022-08-26T09:59:56.775Z,31.77
2022-08-26T10:00:56.853Z,31.87
2022-08-26T10:01:56.873Z,31.84
2022-08-26T10:02:58.135Z,31.80
2022-08-26T10:03:57.764Z,31.55
2022-08-26T10:04:56.689Z,31.81
2022-08-26T10:05:56.681Z,31.97
2022-08-26T10:06:56.690Z,32.33
2022-08-26T10:07:56.635Z,32.83
2022-08-26T10:08:56.620Z,33.15
2022-08-26T10:09:56.609Z,33.55
2022-08-26T10:10:56.584Z,33.45
2022-08-26T10:11:56.595Z,33.32
2022-08-26T10:12:56.554Z,33.34
2022-08-26T10:13:56.530Z,33.00
2022-08-26T10:14:56.520Z,32.43
2022-08-26T10:15:56.502Z,31.54
2022-08-26T10:16:56.639Z,30.68
2022-08-26T10:17:56.462Z,30.24
2022-08-26T10:18:59.918Z,30.54
2022-08-26T10:19:57.899Z,31.02
2022-08-26T10:20:57.412Z,31.52
2022-08-26T10:21:56.424Z,31.52
2022-08-26T10:22:56.379Z,31.46
2022-08-26T10:23:56.363Z,31.02
2022-08-26T10:24:56.359Z,30.51
2022-08-26T10:25:58.932Z,30.63
2022-08-26T10:26:56.343Z,30.59
2022-08-26T10:27:56.303Z,30.28
2022-08-26T10:28:56.277Z,30.53
2022-08-26T10:29:56.264Z,30.84
2022-08-26T10:30:56.286Z,31.31
2022-08-26T10:32:02.422Z,31.31
2022-08-26T10:32:57.206Z,31.55
2022-08-26T10:33:58.852Z,31.89
2022-08-26T10:34:57.178Z,32.23
2022-08-26T10:35:56.162Z,32.27
2022-08-26T10:37:13.937Z,32.51
2022-08-26T10:37:58.131Z,32.70
2022-08-26T10:38:56.106Z,32.80
2022-08-26T10:39:58.664Z,32.07
2022-08-26T10:40:57.080Z,31.74
2022-08-26T10:41:56.084Z,31.43
2022-08-26T10:42:56.043Z,31.59
2022-08-26T10:43:56.017Z,31.12
2022-08-26T10:44:58.593Z,30.90
2022-08-26T10:45:56.047Z,30.88
2022-08-26T10:46:56.004Z,31.12
2022-08-26T10:47:55.964Z,31.49
2022-08-26T10:48:55.937Z,31.65
2022-08-26T10:50:00.420Z,31.78
2022-08-26T10:50:57.896Z,31.78
2022-08-26T10:51:55.912Z,31.49
2022-08-26T10:52:55.857Z,31.43
2022-08-26T10:53:55.854Z,31.42
2022-08-26T10:54:55.824Z,31.49
2022-08-26T10:55:55.832Z,31.55
2022-08-26T10:56:55.816Z,31.54
2022-08-26T10:57:55.770Z,31.18
2022-08-26T10:58:55.752Z,30.24
2022-08-26T10:59:55.739Z,30.18
2022-08-26T11:00:55.873Z,30.28
2022-08-26T11:01:55.736Z,30.24
2022-08-26T11:02:55.723Z,30.37
2022-08-26T11:03:57.943Z,30.72
2022-08-26T11:04:55.646Z,30.88
2022-08-26T11:05:55.632Z,30.78
2022-08-26T11:06:55.641Z,30.91
2022-08-26T11:07:55.598Z,31.07
2022-08-26T11:08:55.577Z,31.15
2022-08-26T11:09:55.553Z,31.47
2022-08-26T11:10:55.540Z,31.70
2022-08-26T11:11:55.554Z,31.69
2022-08-26T11:12:55.505Z,31.76
2022-08-26T11:13:55.493Z,31.49
2022-08-26T11:14:59.065Z,31.52
2022-08-26T11:15:55.448Z,31.96
2022-08-26T11:16:55.508Z,32.31
2022-08-26T11:17:55.408Z,32.64
2022-08-26T11:18:55.404Z,32.90
2022-08-26T11:20:01.478Z,33.00
2022-08-26T11:20:57.359Z,32.96
2022-08-26T11:21:55.372Z,32.95
2022-08-26T11:22:55.322Z,32.82
2022-08-26T11:23:55.307Z,32.78
2022-08-26T11:24:55.293Z,32.83
2022-08-26T11:25:55.267Z,32.90
2022-08-26T11:26:56.693Z,32.92
2022-08-26T11:27:55.236Z,33.00
2022-08-26T11:28:55.219Z,32.93
2022-08-26T11:29:55.195Z,33.11
2022-08-26T11:30:58.132Z,33.14
2022-08-26T11:31:56.325Z,33.27
2022-08-26T11:32:55.148Z,33.34
2022-08-26T11:33:55.130Z,33.39
2022-08-26T11:34:55.131Z,33.42
2022-08-26T11:35:55.093Z,33.37
2022-08-26T11:36:55.108Z,33.43
2022-08-26T11:37:55.060Z,33.37
2022-08-26T11:38:55.049Z,33.24
2022-08-26T11:39:57.195Z,33.20
2022-08-26T11:40:56.004Z,33.12
2022-08-26T11:41:54.992Z,33.12
2022-08-26T11:42:55.000Z,33.11
2022-08-26T11:43:54.964Z,33.36
2022-08-26T11:44:56.190Z,33.61
2022-08-26T11:45:54.956Z,33.43
2022-08-26T11:46:54.906Z,33.43
2022-08-26T11:47:54.915Z,33.19
2022-08-26T11:48:54.867Z,33.20
2022-08-26T11:49:54.849Z,33.04
2022-08-26T11:50:54.832Z,33.23
2022-08-26T11:51:54.813Z,33.28
2022-08-26T11:52:54.851Z,33.20
2022-08-26T11:53:54.779Z,33.22
2022-08-26T11:54:54.778Z,33.11
2022-08-26T11:55:54.741Z,33.20
2022-08-26T11:56:54.725Z,33.04
2022-08-26T11:57:54.730Z,32.95
2022-08-26T11:58:54.706Z,32.78
2022-08-26T11:59:54.674Z,32.40
2022-08-26T12:00:54.655Z,31.97
2022-08-26T12:01:54.638Z,31.94
2022-08-26T12:02:54.643Z,32.15
2022-08-26T12:03:54.644Z,32.11
2022-08-26T12:04:54.644Z,32.15
2022-08-26T12:05:54.568Z,32.23
2022-08-26T12:06:54.547Z,32.21
2022-08-26T12:07:54.556Z,31.97
2022-08-26T12:08:54.514Z,31.99
2022-08-26T12:09:54.490Z,31.89
2022-08-26T12:10:54.477Z,31.84
2022-08-26T12:11:55.632Z,31.84
2022-08-26T12:12:54.467Z,31.96
2022-08-26T12:13:54.425Z,31.84
2022-08-26T12:14:54.406Z,31.96
2022-08-26T12:15:56.000Z,32.00
2022-08-26T12:16:54.456Z,32.03
2022-08-26T12:17:54.751Z,32.03
2022-08-26T12:18:54.339Z,32.04
2022-08-26T12:19:54.311Z,31.99
2022-08-26T12:20:54.301Z,31.99
2022-08-26T12:21:54.285Z,31.93
2022-08-26T12:22:54.284Z,31.39
2022-08-26T12:23:54.241Z,30.90
2022-08-26T12:24:54.225Z,30.80
2022-08-26T12:25:54.208Z,31.02
2022-08-26T12:26:54.187Z,31.05
2022-08-26T12:27:54.224Z,31.05
2022-08-26T12:28:54.154Z,30.94
2022-08-26T12:29:54.129Z,31.24
2022-08-26T12:30:54.113Z,31.33
2022-08-26T12:31:54.135Z,31.27
2022-08-26T12:32:57.697Z,31.27
2022-08-26T12:33:54.057Z,31.42
2022-08-26T12:34:54.067Z,31.65
2022-08-26T12:35:56.351Z,31.65
2022-08-26T12:36:55.031Z,31.77
2022-08-26T12:37:54.051Z,31.92
2022-08-26T12:38:58.001Z,32.03
2022-08-26T12:39:54.048Z,32.07
2022-08-26T12:40:53.935Z,32.09
2022-08-26T12:41:53.928Z,32.09
2022-08-26T12:42:53.993Z,32.11
2022-08-26T12:43:53.889Z,32.01
2022-08-26T12:44:54.719Z,31.93
2022-08-26T12:45:53.873Z,31.96
2022-08-26T12:46:53.964Z,32.01
2022-08-26T12:47:54.052Z,31.96
2022-08-26T12:48:53.906Z,31.99
2022-08-26T12:49:53.780Z,32.18
2022-08-26T12:50:53.761Z,32.22
2022-08-26T12:51:53.733Z,32.30
2022-08-26T12:52:54.750Z,32.33